sensor_id;sensor_type;location;lat;lon;timestamp;P1;durP1;ratioP1;P2;durP2;ratioP2
57663;SDS011;43493;53.098;6.064;2023-05-19T00:01:05;12.43;;;4.33;;
57663;SDS011;43493;53.098;6.064;2023-05-19T00:03:33;13.07;;;5.00;;
57663;SDS011;43493;53.098;6.064;2023-05-19T00:06:01;17.93;;;5.20;;
57663;SDS011;43493;53.098;6.064;2023-05-19T00:08:29;12.93;;;5.37;;
57663;SDS011;43493;53.098;6.064;2023-05-19T00:10:56;12.80;;;5.40;;
57663;SDS011;43493;53.098;6.064;2023-05-19T00:13:22;14.00;;;4.90;;
57663;SDS011;43493;53.098;6.064;2023-05-19T00:15:48;14.17;;;4.97;;
57663;SDS011;43493;53.098;6.064;2023-05-19T00:18:15;14.30;;;5.22;;
57663;SDS011;43493;53.098;6.064;2023-05-19T00:20:41;11.60;;;4.73;;
57663;SDS011;43493;53.098;6.064;2023-05-19T00:23:08;13.50;;;5.07;;
57663;SDS011;43493;53.098;6.064;2023-05-19T00:25:34;12.67;;;5.30;;
57663;SDS011;43493;53.098;6.064;2023-05-19T00:28:00;11.77;;;5.30;;
57663;SDS011;43493;53.098;6.064;2023-05-19T00:30:27;15.60;;;5.93;;
57663;SDS011;43493;53.098;6.064;2023-05-19T00:32:54;11.47;;;5.27;;
57663;SDS011;43493;53.098;6.064;2023-05-19T00:35:20;10.43;;;5.57;;
57663;SDS011;43493;53.098;6.064;2023-05-19T00:37:46;12.27;;;5.53;;
57663;SDS011;43493;53.098;6.064;2023-05-19T00:40:12;13.60;;;4.90;;
57663;SDS011;43493;53.098;6.064;2023-05-19T00:42:39;15.33;;;5.77;;
57663;SDS011;43493;53.098;6.064;2023-05-19T00:45:05;15.93;;;5.37;;
57663;SDS011;43493;53.098;6.064;2023-05-19T00:47:31;10.87;;;5.17;;
57663;SDS011;43493;53.098;6.064;2023-05-19T00:49:57;12.17;;;5.10;;
57663;SDS011;43493;53.098;6.064;2023-05-19T00:52:24;11.07;;;5.23;;
57663;SDS011;43493;53.098;6.064;2023-05-19T00:54:50;16.23;;;5.43;;
57663;SDS011;43493;53.098;6.064;2023-05-19T00:57:17;10.93;;;5.53;;
57663;SDS011;43493;53.098;6.064;2023-05-19T00:59:43;16.30;;;5.17;;
57663;SDS011;43493;53.098;6.064;2023-05-19T01:02:08;11.50;;;5.07;;
57663;SDS011;43493;53.098;6.064;2023-05-19T01:04:35;13.83;;;5.27;;
57663;SDS011;43493;53.098;6.064;2023-05-19T01:07:01;12.03;;;4.90;;
57663;SDS011;43493;53.098;6.064;2023-05-19T01:09:27;12.00;;;5.73;;
57663;SDS011;43493;53.098;6.064;2023-05-19T01:11:54;14.97;;;6.43;;
57663;SDS011;43493;53.098;6.064;2023-05-19T01:14:20;13.40;;;4.43;;
57663;SDS011;43493;53.098;6.064;2023-05-19T01:19:30;13.53;;;5.80;;
57663;SDS011;43493;53.098;6.064;2023-05-19T01:25:29;14.73;;;4.73;;
57663;SDS011;43493;53.098;6.064;2023-05-19T01:31:00;12.53;;;4.97;;
57663;SDS011;43493;53.098;6.064;2023-05-19T01:33:29;16.07;;;5.83;;
57663;SDS011;43493;53.098;6.064;2023-05-19T01:35:56;11.90;;;4.90;;
57663;SDS011;43493;53.098;6.064;2023-05-19T01:38:23;14.35;;;5.20;;
57663;SDS011;43493;53.098;6.064;2023-05-19T01:40:49;11.53;;;5.63;;
57663;SDS011;43493;53.098;6.064;2023-05-19T01:43:17;15.40;;;5.35;;
57663;SDS011;43493;53.098;6.064;2023-05-19T01:45:45;12.13;;;5.35;;
57663;SDS011;43493;53.098;6.064;2023-05-19T01:48:12;17.10;;;6.17;;
57663;SDS011;43493;53.098;6.064;2023-05-19T01:50:38;16.37;;;5.93;;
57663;SDS011;43493;53.098;6.064;2023-05-19T01:53:05;14.50;;;5.90;;
57663;SDS011;43493;53.098;6.064;2023-05-19T01:55:31;10.60;;;5.43;;
57663;SDS011;43493;53.098;6.064;2023-05-19T01:58:05;13.70;;;5.30;;
57663;SDS011;43493;53.098;6.064;2023-05-19T02:00:52;13.90;;;5.72;;
57663;SDS011;43493;53.098;6.064;2023-05-19T02:11:37;11.40;;;5.25;;
57663;SDS011;43493;53.098;6.064;2023-05-19T02:14:17;13.65;;;4.75;;
57663;SDS011;43493;53.098;6.064;2023-05-19T02:16:48;11.70;;;5.03;;
57663;SDS011;43493;53.098;6.064;2023-05-19T02:19:19;17.55;;;5.00;;
57663;SDS011;43493;53.098;6.064;2023-05-19T02:21:52;17.10;;;5.28;;
57663;SDS011;43493;53.098;6.064;2023-05-19T02:24:18;9.73;;;4.60;;
57663;SDS011;43493;53.098;6.064;2023-05-19T02:26:44;9.40;;;5.10;;
57663;SDS011;43493;53.098;6.064;2023-05-19T02:29:10;10.25;;;4.25;;
57663;SDS011;43493;53.098;6.064;2023-05-19T02:31:36;13.67;;;4.60;;
57663;SDS011;43493;53.098;6.064;2023-05-19T02:34:02;16.80;;;4.83;;
57663;SDS011;43493;53.098;6.064;2023-05-19T02:36:30;13.00;;;5.10;;
57663;SDS011;43493;53.098;6.064;2023-05-19T02:38:59;12.07;;;4.50;;
57663;SDS011;43493;53.098;6.064;2023-05-19T02:41:26;14.02;;;4.38;;
57663;SDS011;43493;53.098;6.064;2023-05-19T02:43:52;14.90;;;4.40;;
57663;SDS011;43493;53.098;6.064;2023-05-19T02:46:17;15.03;;;4.63;;
57663;SDS011;43493;53.098;6.064;2023-05-19T02:48:43;11.83;;;4.60;;
57663;SDS011;43493;53.098;6.064;2023-05-19T02:51:09;12.30;;;4.53;;
57663;SDS011;43493;53.098;6.064;2023-05-19T02:53:35;14.87;;;4.93;;
57663;SDS011;43493;53.098;6.064;2023-05-19T02:56:00;10.83;;;4.27;;
57663;SDS011;43493;53.098;6.064;2023-05-19T02:58:26;14.40;;;4.47;;
57663;SDS011;43493;53.098;6.064;2023-05-19T03:00:52;12.77;;;4.50;;
57663;SDS011;43493;53.098;6.064;2023-05-19T03:03:18;11.70;;;4.43;;
57663;SDS011;43493;53.098;6.064;2023-05-19T03:05:44;10.83;;;4.93;;
57663;SDS011;43493;53.098;6.064;2023-05-19T03:08:11;14.93;;;5.20;;
57663;SDS011;43493;53.098;6.064;2023-05-19T03:10:37;15.57;;;4.67;;
57663;SDS011;43493;53.098;6.064;2023-05-19T03:13:02;14.27;;;4.40;;
57663;SDS011;43493;53.098;6.064;2023-05-19T03:15:28;8.53;;;4.03;;
57663;SDS011;43493;53.098;6.064;2023-05-19T03:17:54;17.88;;;4.38;;
57663;SDS011;43493;53.098;6.064;2023-05-19T03:20:20;13.17;;;4.40;;
57663;SDS011;43493;53.098;6.064;2023-05-19T03:22:46;14.53;;;4.10;;
57663;SDS011;43493;53.098;6.064;2023-05-19T03:25:12;12.60;;;4.20;;
57663;SDS011;43493;53.098;6.064;2023-05-19T03:27:37;12.70;;;4.57;;
57663;SDS011;43493;53.098;6.064;2023-05-19T03:30:04;10.93;;;5.10;;
57663;SDS011;43493;53.098;6.064;2023-05-19T03:32:30;12.07;;;4.55;;
57663;SDS011;43493;53.098;6.064;2023-05-19T03:34:57;13.20;;;4.43;;
57663;SDS011;43493;53.098;6.064;2023-05-19T03:37:22;16.38;;;4.45;;
57663;SDS011;43493;53.098;6.064;2023-05-19T03:39:48;15.03;;;4.53;;
57663;SDS011;43493;53.098;6.064;2023-05-19T03:42:14;14.73;;;4.73;;
57663;SDS011;43493;53.098;6.064;2023-05-19T03:44:40;14.13;;;4.22;;
57663;SDS011;43493;53.098;6.064;2023-05-19T03:47:06;14.23;;;3.80;;
57663;SDS011;43493;53.098;6.064;2023-05-19T03:49:31;9.97;;;4.60;;
57663;SDS011;43493;53.098;6.064;2023-05-19T03:51:57;16.83;;;5.47;;
57663;SDS011;43493;53.098;6.064;2023-05-19T03:54:23;14.33;;;5.00;;
57663;SDS011;43493;53.098;6.064;2023-05-19T03:56:48;12.83;;;4.87;;
57663;SDS011;43493;53.098;6.064;2023-05-19T03:59:14;13.67;;;4.90;;
57663;SDS011;43493;53.098;6.064;2023-05-19T04:01:40;14.33;;;5.00;;
57663;SDS011;43493;53.098;6.064;2023-05-19T04:04:06;15.53;;;5.00;;
57663;SDS011;43493;53.098;6.064;2023-05-19T04:06:32;16.50;;;5.00;;
57663;SDS011;43493;53.098;6.064;2023-05-19T04:08:58;18.02;;;4.57;;
57663;SDS011;43493;53.098;6.064;2023-05-19T04:11:24;13.10;;;4.95;;
57663;SDS011;43493;53.098;6.064;2023-05-19T04:13:49;14.70;;;5.10;;
57663;SDS011;43493;53.098;6.064;2023-05-19T04:16:15;15.73;;;4.27;;
57663;SDS011;43493;53.098;6.064;2023-05-19T04:18:41;14.80;;;4.67;;
57663;SDS011;43493;53.098;6.064;2023-05-19T04:21:09;12.48;;;4.85;;
57663;SDS011;43493;53.098;6.064;2023-05-19T04:23:35;14.43;;;5.00;;
57663;SDS011;43493;53.098;6.064;2023-05-19T04:26:00;15.70;;;4.70;;
57663;SDS011;43493;53.098;6.064;2023-05-19T04:28:27;12.98;;;4.50;;
57663;SDS011;43493;53.098;6.064;2023-05-19T04:30:54;18.15;;;5.40;;
57663;SDS011;43493;53.098;6.064;2023-05-19T04:33:22;22.08;;;5.05;;
57663;SDS011;43493;53.098;6.064;2023-05-19T04:35:48;17.67;;;4.93;;
57663;SDS011;43493;53.098;6.064;2023-05-19T04:38:14;16.43;;;4.50;;
57663;SDS011;43493;53.098;6.064;2023-05-19T04:40:42;14.13;;;4.70;;
57663;SDS011;43493;53.098;6.064;2023-05-19T04:43:08;14.77;;;4.87;;
57663;SDS011;43493;53.098;6.064;2023-05-19T04:45:35;17.75;;;5.32;;
57663;SDS011;43493;53.098;6.064;2023-05-19T04:48:01;15.98;;;5.05;;
57663;SDS011;43493;53.098;6.064;2023-05-19T04:50:27;13.63;;;5.47;;
57663;SDS011;43493;53.098;6.064;2023-05-19T04:52:54;14.40;;;4.83;;
57663;SDS011;43493;53.098;6.064;2023-05-19T04:55:22;17.03;;;5.23;;
57663;SDS011;43493;53.098;6.064;2023-05-19T04:57:48;16.40;;;5.20;;
57663;SDS011;43493;53.098;6.064;2023-05-19T05:00:14;17.53;;;5.37;;
57663;SDS011;43493;53.098;6.064;2023-05-19T05:02:40;13.17;;;4.37;;
57663;SDS011;43493;53.098;6.064;2023-05-19T05:05:06;15.43;;;5.60;;
57663;SDS011;43493;53.098;6.064;2023-05-19T05:07:33;15.73;;;5.25;;
57663;SDS011;43493;53.098;6.064;2023-05-19T05:09:59;18.47;;;5.83;;
57663;SDS011;43493;53.098;6.064;2023-05-19T05:12:24;12.97;;;4.67;;
57663;SDS011;43493;53.098;6.064;2023-05-19T05:14:50;12.67;;;5.07;;
57663;SDS011;43493;53.098;6.064;2023-05-19T05:17:16;11.23;;;4.57;;
57663;SDS011;43493;53.098;6.064;2023-05-19T05:19:43;11.77;;;5.00;;
57663;SDS011;43493;53.098;6.064;2023-05-19T05:22:09;12.80;;;4.37;;
57663;SDS011;43493;53.098;6.064;2023-05-19T05:24:35;13.50;;;5.03;;
57663;SDS011;43493;53.098;6.064;2023-05-19T05:27:01;14.23;;;4.73;;
57663;SDS011;43493;53.098;6.064;2023-05-19T05:29:26;15.80;;;4.30;;
57663;SDS011;43493;53.098;6.064;2023-05-19T05:31:52;9.57;;;3.67;;
57663;SDS011;43493;53.098;6.064;2023-05-19T05:34:18;14.13;;;5.20;;
57663;SDS011;43493;53.098;6.064;2023-05-19T05:36:43;14.07;;;4.30;;
57663;SDS011;43493;53.098;6.064;2023-05-19T05:39:09;15.00;;;4.53;;
57663;SDS011;43493;53.098;6.064;2023-05-19T05:41:35;14.67;;;5.03;;
57663;SDS011;43493;53.098;6.064;2023-05-19T05:44:01;12.97;;;4.53;;
57663;SDS011;43493;53.098;6.064;2023-05-19T05:46:26;11.60;;;4.17;;
57663;SDS011;43493;53.098;6.064;2023-05-19T05:48:52;8.97;;;3.37;;
57663;SDS011;43493;53.098;6.064;2023-05-19T05:51:21;8.03;;;3.03;;
57663;SDS011;43493;53.098;6.064;2023-05-19T05:53:50;10.80;;;3.10;;
57663;SDS011;43493;53.098;6.064;2023-05-19T05:56:18;11.50;;;3.10;;
57663;SDS011;43493;53.098;6.064;2023-05-19T05:58:44;8.93;;;3.60;;
57663;SDS011;43493;53.098;6.064;2023-05-19T06:01:10;13.10;;;4.03;;
57663;SDS011;43493;53.098;6.064;2023-05-19T06:03:37;8.27;;;3.43;;
57663;SDS011;43493;53.098;6.064;2023-05-19T06:06:03;9.53;;;3.20;;
57663;SDS011;43493;53.098;6.064;2023-05-19T06:08:29;8.37;;;3.07;;
57663;SDS011;43493;53.098;6.064;2023-05-19T06:10:55;11.10;;;4.30;;
57663;SDS011;43493;53.098;6.064;2023-05-19T06:13:22;10.90;;;3.87;;
57663;SDS011;43493;53.098;6.064;2023-05-19T06:15:50;12.53;;;3.60;;
57663;SDS011;43493;53.098;6.064;2023-05-19T06:18:16;8.97;;;3.33;;
57663;SDS011;43493;53.098;6.064;2023-05-19T06:20:42;9.93;;;3.67;;
57663;SDS011;43493;53.098;6.064;2023-05-19T06:23:08;8.67;;;3.50;;
57663;SDS011;43493;53.098;6.064;2023-05-19T06:25:34;7.57;;;3.30;;
57663;SDS011;43493;53.098;6.064;2023-05-19T06:28:00;8.13;;;3.30;;
57663;SDS011;43493;53.098;6.064;2023-05-19T06:30:26;11.30;;;4.13;;
57663;SDS011;43493;53.098;6.064;2023-05-19T06:32:51;9.87;;;3.30;;
57663;SDS011;43493;53.098;6.064;2023-05-19T06:35:17;11.83;;;4.30;;
57663;SDS011;43493;53.098;6.064;2023-05-19T06:37:43;10.80;;;4.00;;
57663;SDS011;43493;53.098;6.064;2023-05-19T06:40:08;9.93;;;3.80;;
57663;SDS011;43493;53.098;6.064;2023-05-19T06:42:35;9.03;;;3.50;;
57663;SDS011;43493;53.098;6.064;2023-05-19T06:45:00;8.57;;;2.90;;
57663;SDS011;43493;53.098;6.064;2023-05-19T06:47:26;7.07;;;3.40;;
57663;SDS011;43493;53.098;6.064;2023-05-19T06:49:52;8.87;;;3.20;;
57663;SDS011;43493;53.098;6.064;2023-05-19T06:52:21;9.73;;;3.87;;
57663;SDS011;43493;53.098;6.064;2023-05-19T06:54:48;8.57;;;3.13;;
57663;SDS011;43493;53.098;6.064;2023-05-19T06:57:14;8.97;;;3.33;;
57663;SDS011;43493;53.098;6.064;2023-05-19T06:59:39;6.83;;;2.77;;
57663;SDS011;43493;53.098;6.064;2023-05-19T07:02:07;9.43;;;2.63;;
57663;SDS011;43493;53.098;6.064;2023-05-19T07:04:34;8.47;;;3.17;;
57663;SDS011;43493;53.098;6.064;2023-05-19T07:07:00;9.13;;;3.13;;
57663;SDS011;43493;53.098;6.064;2023-05-19T07:09:26;8.53;;;3.13;;
57663;SDS011;43493;53.098;6.064;2023-05-19T07:11:51;8.90;;;3.63;;
57663;SDS011;43493;53.098;6.064;2023-05-19T07:14:17;7.63;;;3.13;;
57663;SDS011;43493;53.098;6.064;2023-05-19T07:16:45;7.73;;;2.97;;
57663;SDS011;43493;53.098;6.064;2023-05-19T07:19:10;8.70;;;3.20;;
57663;SDS011;43493;53.098;6.064;2023-05-19T07:21:36;9.10;;;3.53;;
57663;SDS011;43493;53.098;6.064;2023-05-19T07:24:02;9.53;;;2.80;;
57663;SDS011;43493;53.098;6.064;2023-05-19T07:26:28;8.93;;;3.30;;
57663;SDS011;43493;53.098;6.064;2023-05-19T07:28:53;6.77;;;3.10;;
57663;SDS011;43493;53.098;6.064;2023-05-19T07:31:19;7.00;;;2.60;;
57663;SDS011;43493;53.098;6.064;2023-05-19T07:33:45;8.23;;;3.40;;
57663;SDS011;43493;53.098;6.064;2023-05-19T07:36:11;8.00;;;2.43;;
57663;SDS011;43493;53.098;6.064;2023-05-19T07:38:37;7.67;;;2.63;;
57663;SDS011;43493;53.098;6.064;2023-05-19T07:41:02;7.73;;;2.77;;
57663;SDS011;43493;53.098;6.064;2023-05-19T07:43:28;7.07;;;2.60;;
57663;SDS011;43493;53.098;6.064;2023-05-19T07:45:54;7.67;;;2.70;;
57663;SDS011;43493;53.098;6.064;2023-05-19T07:48:21;6.43;;;2.80;;
57663;SDS011;43493;53.098;6.064;2023-05-19T07:50:48;9.10;;;2.90;;
57663;SDS011;43493;53.098;6.064;2023-05-19T07:53:14;8.70;;;2.80;;
57663;SDS011;43493;53.098;6.064;2023-05-19T07:55:40;6.87;;;2.40;;
57663;SDS011;43493;53.098;6.064;2023-05-19T07:58:06;9.70;;;2.70;;
57663;SDS011;43493;53.098;6.064;2023-05-19T08:00:32;9.47;;;3.33;;
57663;SDS011;43493;53.098;6.064;2023-05-19T08:02:58;8.10;;;3.37;;
57663;SDS011;43493;53.098;6.064;2023-05-19T08:05:24;9.13;;;2.90;;
57663;SDS011;43493;53.098;6.064;2023-05-19T08:07:50;9.10;;;3.13;;
57663;SDS011;43493;53.098;6.064;2023-05-19T08:10:16;7.97;;;3.30;;
57663;SDS011;43493;53.098;6.064;2023-05-19T08:12:42;6.90;;;2.67;;
57663;SDS011;43493;53.098;6.064;2023-05-19T08:15:10;7.00;;;2.43;;
57663;SDS011;43493;53.098;6.064;2023-05-19T08:17:36;5.67;;;2.40;;
57663;SDS011;43493;53.098;6.064;2023-05-19T08:20:03;8.83;;;3.10;;
57663;SDS011;43493;53.098;6.064;2023-05-19T08:22:30;7.03;;;3.27;;
57663;SDS011;43493;53.098;6.064;2023-05-19T08:24:56;9.47;;;2.70;;
57663;SDS011;43493;53.098;6.064;2023-05-19T08:27:22;7.27;;;2.40;;
57663;SDS011;43493;53.098;6.064;2023-05-19T08:29:48;7.57;;;2.47;;
57663;SDS011;43493;53.098;6.064;2023-05-19T08:32:13;9.48;;;3.10;;
57663;SDS011;43493;53.098;6.064;2023-05-19T08:34:39;9.70;;;3.37;;
57663;SDS011;43493;53.098;6.064;2023-05-19T08:37:05;7.87;;;3.30;;
57663;SDS011;43493;53.098;6.064;2023-05-19T08:39:31;9.40;;;2.77;;
57663;SDS011;43493;53.098;6.064;2023-05-19T08:41:59;7.30;;;2.70;;
57663;SDS011;43493;53.098;6.064;2023-05-19T08:44:25;8.07;;;3.00;;
57663;SDS011;43493;53.098;6.064;2023-05-19T08:46:53;8.70;;;3.10;;
57663;SDS011;43493;53.098;6.064;2023-05-19T08:49:25;7.63;;;3.00;;
57663;SDS011;43493;53.098;6.064;2023-05-19T08:54:20;7.43;;;3.03;;
57663;SDS011;43493;53.098;6.064;2023-05-19T08:56:49;8.43;;;2.97;;
57663;SDS011;43493;53.098;6.064;2023-05-19T08:59:15;8.27;;;2.80;;
57663;SDS011;43493;53.098;6.064;2023-05-19T09:01:45;7.67;;;2.70;;
57663;SDS011;43493;53.098;6.064;2023-05-19T09:04:11;7.93;;;2.77;;
57663;SDS011;43493;53.098;6.064;2023-05-19T09:06:37;7.30;;;2.67;;
57663;SDS011;43493;53.098;6.064;2023-05-19T09:09:06;7.67;;;3.00;;
57663;SDS011;43493;53.098;6.064;2023-05-19T09:11:32;7.77;;;3.03;;
57663;SDS011;43493;53.098;6.064;2023-05-19T09:14:01;11.30;;;3.03;;
57663;SDS011;43493;53.098;6.064;2023-05-19T09:16:27;5.70;;;2.73;;
57663;SDS011;43493;53.098;6.064;2023-05-19T09:18:54;10.50;;;3.33;;
57663;SDS011;43493;53.098;6.064;2023-05-19T09:21:27;7.73;;;2.60;;
57663;SDS011;43493;53.098;6.064;2023-05-19T09:24:03;7.63;;;2.87;;
57663;SDS011;43493;53.098;6.064;2023-05-19T09:26:36;7.03;;;3.17;;
57663;SDS011;43493;53.098;6.064;2023-05-19T09:29:10;9.67;;;3.53;;
57663;SDS011;43493;53.098;6.064;2023-05-19T09:31:46;7.70;;;3.13;;
57663;SDS011;43493;53.098;6.064;2023-05-19T09:34:20;10.90;;;3.27;;
57663;SDS011;43493;53.098;6.064;2023-05-19T09:36:48;11.23;;;3.23;;
57663;SDS011;43493;53.098;6.064;2023-05-19T09:39:15;7.63;;;3.30;;
57663;SDS011;43493;53.098;6.064;2023-05-19T09:41:43;7.50;;;3.00;;
57663;SDS011;43493;53.098;6.064;2023-05-19T09:44:12;13.40;;;3.80;;
57663;SDS011;43493;53.098;6.064;2023-05-19T09:46:49;9.43;;;3.93;;
57663;SDS011;43493;53.098;6.064;2023-05-19T09:49:28;8.77;;;3.67;;
57663;SDS011;43493;53.098;6.064;2023-05-19T09:51:55;11.10;;;3.67;;
57663;SDS011;43493;53.098;6.064;2023-05-19T09:54:22;8.40;;;2.97;;
57663;SDS011;43493;53.098;6.064;2023-05-19T09:56:58;9.63;;;3.80;;
57663;SDS011;43493;53.098;6.064;2023-05-19T09:59:25;8.07;;;3.33;;
57663;SDS011;43493;53.098;6.064;2023-05-19T10:01:56;10.73;;;3.10;;
57663;SDS011;43493;53.098;6.064;2023-05-19T10:04:23;8.17;;;3.00;;
57663;SDS011;43493;53.098;6.064;2023-05-19T10:06:53;10.17;;;3.10;;
57663;SDS011;43493;53.098;6.064;2023-05-19T10:09:23;7.40;;;2.87;;
57663;SDS011;43493;53.098;6.064;2023-05-19T10:11:53;9.50;;;3.07;;
57663;SDS011;43493;53.098;6.064;2023-05-19T10:14:21;9.17;;;3.43;;
57663;SDS011;43493;53.098;6.064;2023-05-19T10:16:52;7.57;;;2.60;;
57663;SDS011;43493;53.098;6.064;2023-05-19T10:19:19;8.40;;;3.00;;
57663;SDS011;43493;53.098;6.064;2023-05-19T10:21:46;9.30;;;2.97;;
57663;SDS011;43493;53.098;6.064;2023-05-19T10:24:12;6.83;;;2.80;;
57663;SDS011;43493;53.098;6.064;2023-05-19T10:26:39;8.97;;;3.53;;
57663;SDS011;43493;53.098;6.064;2023-05-19T10:29:08;8.43;;;3.47;;
57663;SDS011;43493;53.098;6.064;2023-05-19T10:31:35;9.33;;;3.17;;
57663;SDS011;43493;53.098;6.064;2023-05-19T10:36:49;8.73;;;3.47;;
57663;SDS011;43493;53.098;6.064;2023-05-19T10:39:36;10.53;;;3.57;;
57663;SDS011;43493;53.098;6.064;2023-05-19T10:44:44;11.53;;;3.23;;
57663;SDS011;43493;53.098;6.064;2023-05-19T10:47:34;6.50;;;3.05;;
57663;SDS011;43493;53.098;6.064;2023-05-19T10:50:00;10.07;;;3.40;;
57663;SDS011;43493;53.098;6.064;2023-05-19T10:52:28;7.37;;;2.80;;
57663;SDS011;43493;53.098;6.064;2023-05-19T10:54:55;8.17;;;3.07;;
57663;SDS011;43493;53.098;6.064;2023-05-19T10:57:25;8.30;;;3.50;;
57663;SDS011;43493;53.098;6.064;2023-05-19T10:59:56;7.65;;;2.83;;
57663;SDS011;43493;53.098;6.064;2023-05-19T11:02:43;6.70;;;2.90;;
57663;SDS011;43493;53.098;6.064;2023-05-19T11:05:13;6.75;;;2.80;;
57663;SDS011;43493;53.098;6.064;2023-05-19T11:07:54;7.80;;;3.40;;
57663;SDS011;43493;53.098;6.064;2023-05-19T11:10:26;7.70;;;3.10;;
57663;SDS011;43493;53.098;6.064;2023-05-19T11:12:51;7.83;;;3.10;;
57663;SDS011;43493;53.098;6.064;2023-05-19T11:15:20;7.37;;;3.20;;
57663;SDS011;43493;53.098;6.064;2023-05-19T11:17:50;11.67;;;2.90;;
57663;SDS011;43493;53.098;6.064;2023-05-19T11:20:24;6.87;;;2.60;;
57663;SDS011;43493;53.098;6.064;2023-05-19T11:23:00;8.27;;;3.23;;
57663;SDS011;43493;53.098;6.064;2023-05-19T11:25:42;9.97;;;2.93;;
57663;SDS011;43493;53.098;6.064;2023-05-19T11:28:12;7.87;;;2.80;;
57663;SDS011;43493;53.098;6.064;2023-05-19T11:30:40;8.90;;;3.10;;
57663;SDS011;43493;53.098;6.064;2023-05-19T11:33:10;6.47;;;2.43;;
57663;SDS011;43493;53.098;6.064;2023-05-19T11:35:37;7.50;;;2.80;;
57663;SDS011;43493;53.098;6.064;2023-05-19T11:38:04;5.80;;;2.17;;
57663;SDS011;43493;53.098;6.064;2023-05-19T11:40:31;7.00;;;2.50;;
57663;SDS011;43493;53.098;6.064;2023-05-19T11:42:57;8.13;;;2.40;;
57663;SDS011;43493;53.098;6.064;2023-05-19T11:45:26;8.50;;;2.60;;
57663;SDS011;43493;53.098;6.064;2023-05-19T11:47:56;6.13;;;2.73;;
57663;SDS011;43493;53.098;6.064;2023-05-19T11:50:23;7.77;;;2.77;;
57663;SDS011;43493;53.098;6.064;2023-05-19T11:52:49;6.97;;;2.30;;
57663;SDS011;43493;53.098;6.064;2023-05-19T11:55:19;8.77;;;2.07;;
57663;SDS011;43493;53.098;6.064;2023-05-19T11:57:58;6.67;;;2.33;;
57663;SDS011;43493;53.098;6.064;2023-05-19T12:00:26;7.90;;;2.60;;
57663;SDS011;43493;53.098;6.064;2023-05-19T12:02:54;6.93;;;2.23;;
57663;SDS011;43493;53.098;6.064;2023-05-19T12:05:21;7.03;;;2.20;;
57663;SDS011;43493;53.098;6.064;2023-05-19T12:07:48;6.80;;;2.50;;
57663;SDS011;43493;53.098;6.064;2023-05-19T12:10:27;6.33;;;2.10;;
57663;SDS011;43493;53.098;6.064;2023-05-19T12:12:55;6.57;;;2.43;;
57663;SDS011;43493;53.098;6.064;2023-05-19T12:15:22;8.00;;;2.40;;
57663;SDS011;43493;53.098;6.064;2023-05-19T12:17:49;7.30;;;2.73;;
57663;SDS011;43493;53.098;6.064;2023-05-19T12:20:20;8.03;;;2.30;;
57663;SDS011;43493;53.098;6.064;2023-05-19T12:22:47;6.77;;;2.23;;
57663;SDS011;43493;53.098;6.064;2023-05-19T12:25:16;4.93;;;2.23;;
57663;SDS011;43493;53.098;6.064;2023-05-19T12:27:43;7.53;;;2.23;;
57663;SDS011;43493;53.098;6.064;2023-05-19T12:30:09;6.63;;;2.47;;
57663;SDS011;43493;53.098;6.064;2023-05-19T12:32:36;10.97;;;2.90;;
57663;SDS011;43493;53.098;6.064;2023-05-19T12:35:03;9.73;;;2.87;;
57663;SDS011;43493;53.098;6.064;2023-05-19T12:37:30;9.03;;;2.57;;
57663;SDS011;43493;53.098;6.064;2023-05-19T12:40:01;7.67;;;3.23;;
57663;SDS011;43493;53.098;6.064;2023-05-19T12:42:30;7.67;;;2.73;;
57663;SDS011;43493;53.098;6.064;2023-05-19T12:44:59;7.50;;;2.70;;
57663;SDS011;43493;53.098;6.064;2023-05-19T12:47:30;8.07;;;2.50;;
57663;SDS011;43493;53.098;6.064;2023-05-19T12:52:24;7.10;;;2.30;;
57663;SDS011;43493;53.098;6.064;2023-05-19T12:54:58;5.60;;;2.50;;
57663;SDS011;43493;53.098;6.064;2023-05-19T12:57:38;10.57;;;2.50;;
57663;SDS011;43493;53.098;6.064;2023-05-19T13:05:25;7.80;;;2.70;;
57663;SDS011;43493;53.098;6.064;2023-05-19T13:10:24;8.57;;;2.90;;
57663;SDS011;43493;53.098;6.064;2023-05-19T13:12:53;9.23;;;3.23;;
57663;SDS011;43493;53.098;6.064;2023-05-19T13:15:23;5.70;;;2.30;;
57663;SDS011;43493;53.098;6.064;2023-05-19T13:17:51;6.63;;;2.70;;
57663;SDS011;43493;53.098;6.064;2023-05-19T13:20:18;8.87;;;3.57;;
57663;SDS011;43493;53.098;6.064;2023-05-19T13:22:45;6.60;;;2.83;;
57663;SDS011;43493;53.098;6.064;2023-05-19T13:25:14;8.03;;;3.40;;
57663;SDS011;43493;53.098;6.064;2023-05-19T13:27:40;8.93;;;3.87;;
57663;SDS011;43493;53.098;6.064;2023-05-19T13:30:06;6.90;;;3.33;;
57663;SDS011;43493;53.098;6.064;2023-05-19T13:32:32;8.73;;;3.03;;
57663;SDS011;43493;53.098;6.064;2023-05-19T13:34:59;9.43;;;3.00;;
57663;SDS011;43493;53.098;6.064;2023-05-19T13:37:25;7.13;;;3.13;;
57663;SDS011;43493;53.098;6.064;2023-05-19T13:39:52;8.30;;;3.07;;
57663;SDS011;43493;53.098;6.064;2023-05-19T13:42:18;9.03;;;3.67;;
57663;SDS011;43493;53.098;6.064;2023-05-19T13:44:44;9.13;;;3.40;;
57663;SDS011;43493;53.098;6.064;2023-05-19T13:47:10;9.23;;;3.40;;
57663;SDS011;43493;53.098;6.064;2023-05-19T13:49:36;11.80;;;3.37;;
57663;SDS011;43493;53.098;6.064;2023-05-19T13:52:02;7.33;;;3.83;;
57663;SDS011;43493;53.098;6.064;2023-05-19T13:54:28;7.53;;;2.90;;
57663;SDS011;43493;53.098;6.064;2023-05-19T13:56:54;8.27;;;2.70;;
57663;SDS011;43493;53.098;6.064;2023-05-19T13:59:20;8.77;;;2.93;;
57663;SDS011;43493;53.098;6.064;2023-05-19T14:01:45;7.80;;;3.07;;
57663;SDS011;43493;53.098;6.064;2023-05-19T14:04:12;8.40;;;2.77;;
57663;SDS011;43493;53.098;6.064;2023-05-19T14:06:40;5.33;;;2.40;;
57663;SDS011;43493;53.098;6.064;2023-05-19T14:09:06;9.43;;;2.40;;
57663;SDS011;43493;53.098;6.064;2023-05-19T14:11:31;6.90;;;2.60;;
57663;SDS011;43493;53.098;6.064;2023-05-19T14:13:57;6.97;;;2.57;;
57663;SDS011;43493;53.098;6.064;2023-05-19T14:16:23;6.10;;;2.63;;
57663;SDS011;43493;53.098;6.064;2023-05-19T14:18:50;7.00;;;2.80;;
57663;SDS011;43493;53.098;6.064;2023-05-19T14:21:16;5.93;;;2.43;;
57663;SDS011;43493;53.098;6.064;2023-05-19T14:23:42;9.90;;;3.60;;
57663;SDS011;43493;53.098;6.064;2023-05-19T14:26:07;10.03;;;3.60;;
57663;SDS011;43493;53.098;6.064;2023-05-19T14:28:33;7.77;;;2.60;;
57663;SDS011;43493;53.098;6.064;2023-05-19T14:30:59;6.53;;;3.03;;
57663;SDS011;43493;53.098;6.064;2023-05-19T14:33:25;10.50;;;3.87;;
57663;SDS011;43493;53.098;6.064;2023-05-19T14:35:51;12.40;;;4.20;;
57663;SDS011;43493;53.098;6.064;2023-05-19T14:38:17;14.37;;;3.80;;
57663;SDS011;43493;53.098;6.064;2023-05-19T14:40:43;10.83;;;4.57;;
57663;SDS011;43493;53.098;6.064;2023-05-19T14:43:09;10.83;;;4.40;;
57663;SDS011;43493;53.098;6.064;2023-05-19T14:45:35;10.23;;;3.90;;
57663;SDS011;43493;53.098;6.064;2023-05-19T14:48:02;13.53;;;4.10;;
57663;SDS011;43493;53.098;6.064;2023-05-19T14:50:28;11.10;;;3.70;;
57663;SDS011;43493;53.098;6.064;2023-05-19T14:52:53;12.07;;;3.97;;
57663;SDS011;43493;53.098;6.064;2023-05-19T14:55:20;12.87;;;4.93;;
57663;SDS011;43493;53.098;6.064;2023-05-19T14:57:46;11.27;;;4.60;;
57663;SDS011;43493;53.098;6.064;2023-05-19T15:00:11;11.00;;;3.87;;
57663;SDS011;43493;53.098;6.064;2023-05-19T15:02:37;9.90;;;4.27;;
57663;SDS011;43493;53.098;6.064;2023-05-19T15:05:03;13.67;;;4.23;;
57663;SDS011;43493;53.098;6.064;2023-05-19T15:07:29;12.47;;;4.27;;
57663;SDS011;43493;53.098;6.064;2023-05-19T15:09:55;12.13;;;4.80;;
57663;SDS011;43493;53.098;6.064;2023-05-19T15:12:20;10.23;;;4.43;;
57663;SDS011;43493;53.098;6.064;2023-05-19T15:14:46;12.93;;;4.67;;
57663;SDS011;43493;53.098;6.064;2023-05-19T15:17:12;12.27;;;4.90;;